createdAt,value
2023-04-07T00:01:09.344Z,100.00
2023-04-07T00:06:15.075Z,100.00
2023-04-07T00:11:22.663Z,100.00
2023-04-07T00:16:29.923Z,100.00
2023-04-07T00:21:35.292Z,100.00
2023-04-07T00:26:42.399Z,100.00
2023-04-07T00:31:49.896Z,100.00
2023-04-07T00:36:55.638Z,100.00
2023-04-07T00:42:04.873Z,100.00
2023-04-07T00:47:12.355Z,100.00
2023-04-07T00:52:18.063Z,100.00
2023-04-07T00:57:26.228Z,100.00
2023-04-07T01:02:39.254Z,100.00
2023-04-07T01:07:58.226Z,100.00
2023-04-07T01:13:14.882Z,100.00
2023-04-07T01:18:27.990Z,100.00
2023-04-07T01:23:50.834Z,100.00
2023-04-07T01:29:16.230Z,99.97
2023-04-07T01:34:25.753Z,99.91
2023-04-07T01:39:33.954Z,99.73
2023-04-07T01:44:42.237Z,99.88
2023-04-07T01:49:51.176Z,99.98
2023-04-07T01:54:58.563Z,100.00
2023-04-07T02:00:06.677Z,100.00
2023-04-07T02:05:18.839Z,100.00
2023-04-07T02:10:29.795Z,100.00
2023-04-07T02:23:51.151Z,100.00
2023-04-07T02:28:58.640Z,100.00
2023-04-07T02:34:04.407Z,100.00
2023-04-07T02:39:12.404Z,100.00
2023-04-07T02:44:19.775Z,100.00
2023-04-07T02:59:21.685Z,100.00
2023-04-07T03:04:28.134Z,100.00
2023-04-07T03:09:35.730Z,100.00
2023-04-07T03:14:42.938Z,100.00
2023-04-07T03:19:48.690Z,100.00
2023-04-07T03:24:55.834Z,100.00
2023-04-07T03:30:03.165Z,100.00
2023-04-07T03:35:12.393Z,100.00
2023-04-07T03:40:20.146Z,100.00
2023-04-07T03:45:27.578Z,100.00
2023-04-07T03:50:34.771Z,100.00
2023-04-07T03:55:42.164Z,100.00
2023-04-07T04:00:47.673Z,100.00
2023-04-07T04:05:54.992Z,100.00
2023-04-07T04:11:02.297Z,100.00
2023-04-07T04:16:09.176Z,100.00
2023-04-07T04:21:16.666Z,100.00
2023-04-07T04:26:26.336Z,100.00
2023-04-07T04:31:34.115Z,100.00
2023-04-07T04:36:42.012Z,100.00
2023-04-07T04:41:49.474Z,100.00
2023-04-07T04:46:54.993Z,100.00
2023-04-07T04:52:02.177Z,100.00
2023-04-07T04:57:09.879Z,100.00
2023-04-07T05:02:15.567Z,100.00
2023-04-07T05:07:23.196Z,100.00
2023-04-07T05:12:30.247Z,100.00
2023-04-07T05:17:37.574Z,100.00
2023-04-07T05:22:44.798Z,100.00
2023-04-07T05:27:52.096Z,100.00
2023-04-07T05:32:59.794Z,100.00
2023-04-07T05:38:07.290Z,100.00
2023-04-07T05:47:14.527Z,100.00
2023-04-07T05:52:21.904Z,100.00
2023-04-07T05:57:29.930Z,100.00
2023-04-07T06:02:38.058Z,100.00
2023-04-07T06:07:45.847Z,100.00
2023-04-07T06:12:53.286Z,100.00
2023-04-07T06:18:01.114Z,100.00
2023-04-07T06:23:08.742Z,100.00
2023-04-07T06:28:16.134Z,100.00
2023-04-07T06:33:26.080Z,100.00
2023-04-07T06:38:33.780Z,100.00
2023-04-07T06:43:41.297Z,100.00
2023-04-07T06:48:48.719Z,100.00
2023-04-07T06:53:55.947Z,100.00
2023-04-07T06:59:01.878Z,100.00
2023-04-07T07:04:09.385Z,100.00
2023-04-07T07:09:16.983Z,100.00
2023-04-07T07:14:24.244Z,100.00
2023-04-07T07:19:31.560Z,100.00
2023-04-07T07:24:40.351Z,100.00
2023-04-07T07:29:47.412Z,100.00
2023-04-07T07:34:54.666Z,100.00
2023-04-07T07:40:00.551Z,100.00
2023-04-07T07:45:09.216Z,100.00
2023-04-07T07:50:16.798Z,100.00
2023-04-07T07:55:22.471Z,99.93
2023-04-07T08:00:30.059Z,99.87
2023-04-07T08:05:37.457Z,99.94
2023-04-07T08:10:44.927Z,100.00
2023-04-07T08:15:52.144Z,100.00
2023-04-07T08:21:00.704Z,100.00
2023-04-07T08:26:08.719Z,100.00
2023-04-07T08:31:16.583Z,100.00
2023-04-07T08:36:26.453Z,100.00
2023-04-07T08:41:39.160Z,99.92
2023-04-07T08:46:49.533Z,99.97
2023-04-07T08:51:59.707Z,100.00
2023-04-07T08:57:07.674Z,100.00
2023-04-07T09:02:16.010Z,99.92
2023-04-07T09:07:23.354Z,99.89
2023-04-07T09:12:30.548Z,99.89
2023-04-07T09:17:38.595Z,100.00
2023-04-07T09:22:47.059Z,100.00
2023-04-07T09:28:02.144Z,100.00
2023-04-07T09:33:10.759Z,100.00
2023-04-07T09:38:17.983Z,100.00
2023-04-07T09:43:25.234Z,100.00
2023-04-07T09:48:32.555Z,100.00
2023-04-07T09:53:49.336Z,100.00
2023-04-07T09:58:57.093Z,100.00
2023-04-07T10:04:05.325Z,100.00
2023-04-07T10:09:15.751Z,100.00
2023-04-07T10:14:27.865Z,100.00
2023-04-07T10:19:36.581Z,100.00
2023-04-07T10:24:53.258Z,100.00
2023-04-07T10:30:02.004Z,100.00
2023-04-07T10:47:29.284Z,100.00
2023-04-07T10:52:34.141Z,100.00
2023-04-07T10:57:39.132Z,100.00
2023-04-07T11:02:43.693Z,100.00
2023-04-07T11:07:50.478Z,99.91
2023-04-07T11:13:03.538Z,99.81
2023-04-07T11:18:17.464Z,99.93
2023-04-07T11:23:23.417Z,99.84
2023-04-07T11:28:27.644Z,99.73
2023-04-07T11:33:34.410Z,99.57
2023-04-07T11:38:39.688Z,99.22
2023-04-07T11:43:44.432Z,99.01
2023-04-07T11:48:48.562Z,98.69
2023-04-07T11:53:57.305Z,98.37
2023-04-07T11:59:02.216Z,98.07
2023-04-07T12:04:07.020Z,97.95
2023-04-07T12:09:27.484Z,98.22
2023-04-07T12:14:31.498Z,98.22
2023-04-07T12:19:37.187Z,98.36
2023-04-07T12:24:42.586Z,98.76
2023-04-07T12:29:46.647Z,98.82
2023-04-07T12:34:51.189Z,98.62
2023-04-07T12:39:55.178Z,98.56
2023-04-07T12:44:59.330Z,98.81
2023-04-07T12:50:03.633Z,98.90
2023-04-07T12:55:09.033Z,98.80
2023-04-07T13:00:15.122Z,99.04
2023-04-07T13:05:19.273Z,98.73
2023-04-07T13:10:24.282Z,98.82
2023-04-07T13:15:28.927Z,99.17
2023-04-07T13:20:33.906Z,99.28
2023-04-07T13:25:38.933Z,99.50
2023-04-07T13:30:43.867Z,99.87
2023-04-07T13:35:47.819Z,99.89
2023-04-07T13:40:51.612Z,99.83
2023-04-07T13:45:56.594Z,100.00
2023-04-07T13:51:00.439Z,100.00
2023-04-07T13:56:08.010Z,100.00
2023-04-07T14:01:12.148Z,100.00
2023-04-07T14:06:16.665Z,100.00
2023-04-07T14:11:21.748Z,100.00
2023-04-07T14:16:26.959Z,100.00
2023-04-07T14:21:31.885Z,100.00
2023-04-07T14:26:36.213Z,100.00
2023-04-07T14:31:41.208Z,100.00
2023-04-07T14:36:54.851Z,100.00
2023-04-07T14:42:00.326Z,99.98
2023-04-07T14:47:04.487Z,99.94
2023-04-07T14:52:08.888Z,99.90
2023-04-07T14:57:13.182Z,99.85
2023-04-07T15:02:17.434Z,99.77
2023-04-07T15:07:21.576Z,99.75
2023-04-07T15:12:27.097Z,99.66
2023-04-07T15:17:43.039Z,99.78
2023-04-07T15:22:49.992Z,99.72
2023-04-07T15:27:54.342Z,99.94
2023-04-07T15:33:00.996Z,100.00
2023-04-07T15:38:05.113Z,100.00
2023-04-07T15:43:11.089Z,100.00
2023-04-07T15:48:15.605Z,100.00
2023-04-07T15:53:20.461Z,100.00
2023-04-07T15:58:24.322Z,100.00
2023-04-07T16:03:29.010Z,100.00
2023-04-07T16:08:33.213Z,100.00
2023-04-07T16:13:37.737Z,100.00
2023-04-07T16:18:42.478Z,100.00
2023-04-07T16:23:47.147Z,100.00
2023-04-07T16:28:52.179Z,100.00
2023-04-07T16:33:56.510Z,100.00
2023-04-07T16:39:00.569Z,100.00
2023-04-07T16:44:04.571Z,100.00
2023-04-07T16:49:10.203Z,100.00
2023-04-07T16:54:14.140Z,100.00
2023-04-07T16:59:19.097Z,100.00
2023-04-07T17:04:24.821Z,100.00
2023-04-07T17:09:30.101Z,100.00
2023-04-07T17:14:34.388Z,100.00
2023-04-07T17:19:39.130Z,100.00
2023-04-07T17:24:44.332Z,100.00
2023-04-07T17:29:48.270Z,100.00
2023-04-07T17:34:53.585Z,100.00
2023-04-07T17:39:58.014Z,100.00
2023-04-07T17:45:02.623Z,100.00
2023-04-07T17:50:09.149Z,100.00
2023-04-07T17:55:13.564Z,100.00
2023-04-07T18:00:19.146Z,99.83
2023-04-07T18:05:24.215Z,100.00
2023-04-07T18:10:29.315Z,100.00
2023-04-07T18:15:33.808Z,100.00
2023-04-07T18:20:38.327Z,99.93
2023-04-07T18:25:43.899Z,99.46
2023-04-07T18:30:47.980Z,99.26
2023-04-07T18:35:51.903Z,99.19
2023-04-07T18:40:56.545Z,99.55
2023-04-07T18:46:01.121Z,99.73
2023-04-07T18:51:07.253Z,99.85
2023-04-07T18:56:12.496Z,100.00
2023-04-07T19:01:16.793Z,100.00
2023-04-07T19:06:21.217Z,99.83
2023-04-07T19:11:26.791Z,99.32
2023-04-07T19:16:31.455Z,98.76
2023-04-07T19:21:37.320Z,98.68
2023-04-07T19:26:42.897Z,98.15
2023-04-07T19:31:48.022Z,97.99
2023-04-07T19:36:51.959Z,97.67
2023-04-07T19:41:57.198Z,97.39
2023-04-07T19:47:01.222Z,97.42
2023-04-07T19:52:05.662Z,97.15
2023-04-07T19:57:10.274Z,96.97
2023-04-07T20:02:14.978Z,96.91
2023-04-07T20:07:19.463Z,96.91
2023-04-07T20:12:23.770Z,96.84
2023-04-07T20:17:28.747Z,96.82
2023-04-07T20:22:34.190Z,96.85
2023-04-07T20:27:39.865Z,96.78
2023-04-07T20:32:45.560Z,96.87
2023-04-07T20:37:49.838Z,96.78
2023-04-07T20:42:54.292Z,96.68
2023-04-07T20:47:58.983Z,96.52
2023-04-07T20:53:03.625Z,96.81
2023-04-07T20:58:08.088Z,96.48
2023-04-07T21:03:12.569Z,96.75
2023-04-07T21:08:17.132Z,96.65
2023-04-07T21:13:22.000Z,96.65
2023-04-07T21:18:26.772Z,96.52
2023-04-07T21:23:31.544Z,96.78
2023-04-07T21:28:36.247Z,96.62
2023-04-07T21:33:40.570Z,96.58
2023-04-07T21:38:44.539Z,96.49
2023-04-07T21:43:48.632Z,96.51
2023-04-07T21:48:52.662Z,96.50
2023-04-07T21:53:57.084Z,96.27
2023-04-07T21:59:01.532Z,96.21
2023-04-07T22:04:07.239Z,96.45
2023-04-07T22:09:11.971Z,96.22
2023-04-07T22:14:16.267Z,96.15
2023-04-07T22:19:21.224Z,95.84
2023-04-07T22:24:25.630Z,96.01
2023-04-07T22:29:31.344Z,96.13
2023-04-07T22:34:36.061Z,95.99
2023-04-07T22:39:40.170Z,95.98
2023-04-07T22:44:44.204Z,96.03
2023-04-07T22:49:48.646Z,96.24
2023-04-07T22:54:52.638Z,96.04
2023-04-07T22:59:57.305Z,95.95
2023-04-07T23:05:02.988Z,96.20
2023-04-07T23:10:09.962Z,96.13
2023-04-07T23:15:14.684Z,96.12
2023-04-07T23:20:18.853Z,96.34
2023-04-07T23:25:23.312Z,96.04
2023-04-07T23:30:27.792Z,96.15
2023-04-07T23:35:32.041Z,96.17
2023-04-07T23:40:36.576Z,96.23
2023-04-07T23:45:40.436Z,96.15
2023-04-07T23:54:37.975Z,96.18
2023-04-07T23:59:45.366Z,96.02
